createdAt,value
2022-10-05T00:00:59.490Z,5.60
2022-10-05T00:03:37.393Z,5.70
2022-10-05T00:06:05.260Z,5.90
2022-10-05T00:08:34.701Z,6.00
2022-10-05T00:11:02.260Z,6.00
2022-10-05T00:13:31.213Z,6.00
2022-10-05T00:16:09.808Z,5.80
2022-10-05T00:18:39.014Z,5.10
2022-10-05T00:21:19.054Z,5.30
2022-10-05T00:23:46.858Z,4.30
2022-10-05T00:26:21.131Z,4.30
2022-10-05T00:28:49.341Z,4.60
2022-10-05T00:31:22.556Z,4.80
2022-10-05T00:33:50.985Z,5.50
2022-10-05T00:36:19.581Z,5.40
2022-10-05T00:38:47.079Z,5.50
2022-10-05T00:41:24.041Z,5.30
2022-10-05T00:44:13.129Z,5.20
2022-10-05T00:46:43.610Z,5.20
2022-10-05T00:49:20.365Z,5.30
2022-10-05T00:51:56.802Z,5.50
2022-10-05T00:54:48.974Z,5.70
2022-10-05T00:57:47.137Z,5.50
2022-10-05T01:00:20.086Z,5.40
2022-10-05T01:03:04.698Z,5.30
2022-10-05T01:06:02.373Z,5.40
2022-10-05T01:09:02.687Z,5.40
2022-10-05T01:11:35.766Z,6.10
2022-10-05T01:14:12.276Z,5.30
2022-10-05T01:16:55.002Z,5.10
2022-10-05T01:19:40.267Z,5.30
2022-10-05T01:22:10.374Z,4.90
2022-10-05T01:24:56.652Z,4.80
2022-10-05T01:27:43.158Z,4.30
2022-10-05T01:30:14.141Z,4.90
2022-10-05T01:33:11.893Z,4.90
2022-10-05T01:36:03.629Z,4.90
2022-10-05T01:38:46.513Z,4.80
2022-10-05T01:41:29.274Z,4.70
2022-10-05T01:44:20.095Z,4.90
2022-10-05T01:47:07.007Z,5.00
2022-10-05T01:49:56.827Z,4.70
2022-10-05T01:52:45.328Z,5.00
2022-10-05T01:55:35.377Z,5.10
2022-10-05T01:58:20.092Z,5.30
2022-10-05T02:01:04.467Z,5.20
2022-10-05T02:04:08.664Z,5.30
2022-10-05T02:06:42.626Z,5.30
2022-10-05T02:09:33.880Z,5.40
2022-10-05T02:12:07.233Z,5.50
2022-10-05T02:14:42.126Z,5.60
2022-10-05T02:17:19.915Z,5.60
2022-10-05T02:19:52.538Z,5.60
2022-10-05T02:22:42.959Z,5.50
2022-10-05T02:25:16.296Z,5.30
2022-10-05T02:28:18.351Z,5.10
2022-10-05T02:30:54.346Z,5.00
2022-10-05T02:33:33.356Z,5.10
2022-10-05T02:36:33.218Z,5.20
2022-10-05T02:39:08.080Z,5.40
2022-10-05T02:42:09.157Z,5.60
2022-10-05T02:45:07.655Z,5.80
2022-10-05T02:47:52.657Z,5.90
2022-10-05T02:50:53.616Z,6.00
2022-10-05T02:53:45.600Z,6.10
2022-10-05T02:57:02.466Z,6.10
2022-10-05T02:59:39.336Z,6.10
2022-10-05T03:02:19.067Z,6.10
2022-10-05T03:04:55.683Z,6.10
2022-10-05T03:07:42.002Z,6.10
2022-10-05T03:10:22.298Z,6.10
2022-10-05T03:13:00.741Z,6.10
2022-10-05T03:15:52.634Z,6.00
2022-10-05T03:18:30.875Z,6.10
2022-10-05T03:21:23.128Z,6.20
2022-10-05T03:24:02.556Z,6.20
2022-10-05T03:26:33.118Z,6.00
2022-10-05T03:29:38.564Z,6.00
2022-10-05T03:32:24.093Z,5.90
2022-10-05T03:35:03.641Z,6.00
2022-10-05T03:37:50.074Z,6.00
2022-10-05T03:40:45.573Z,6.00
2022-10-05T03:43:47.855Z,6.10
2022-10-05T03:46:37.460Z,6.20
2022-10-05T03:49:37.152Z,6.40
2022-10-05T03:52:23.033Z,6.40
2022-10-05T03:55:31.899Z,6.50
2022-10-05T03:58:07.349Z,6.50
2022-10-05T04:00:36.392Z,6.60
2022-10-05T04:03:29.895Z,6.50
2022-10-05T04:06:10.508Z,6.50
2022-10-05T04:09:11.842Z,6.60
2022-10-05T04:11:55.033Z,6.70
2022-10-05T04:14:24.398Z,6.80
2022-10-05T04:17:03.066Z,6.90
2022-10-05T04:19:51.431Z,6.90
2022-10-05T04:22:31.986Z,6.90
2022-10-05T04:25:14.063Z,7.00
2022-10-05T04:28:08.084Z,7.00
2022-10-05T04:30:40.335Z,7.10
2022-10-05T04:33:12.846Z,7.10
2022-10-05T04:36:08.483Z,7.20
2022-10-05T04:38:44.869Z,7.20
2022-10-05T04:41:27.307Z,7.20
2022-10-05T04:44:20.125Z,7.30
2022-10-05T04:47:22.614Z,7.30
2022-10-05T04:50:15.199Z,7.30
2022-10-05T04:53:07.619Z,7.40
2022-10-05T04:55:34.930Z,7.40
2022-10-05T04:58:43.459Z,7.60
2022-10-05T05:01:36.620Z,7.30
2022-10-05T05:04:42.104Z,7.30
2022-10-05T05:07:35.161Z,7.20
2022-10-05T05:10:23.589Z,8.10
2022-10-05T05:13:12.378Z,7.20
2022-10-05T05:15:43.171Z,7.40
2022-10-05T05:18:17.445Z,7.30
2022-10-05T05:21:19.288Z,7.10
2022-10-05T05:24:05.575Z,7.30
2022-10-05T05:27:01.232Z,7.30
2022-10-05T05:29:45.428Z,7.30
2022-10-05T05:32:38.087Z,5.20
2022-10-05T05:35:16.655Z,7.20
2022-10-05T05:37:53.000Z,7.20
2022-10-05T05:40:39.227Z,7.20
2022-10-05T05:43:12.679Z,7.30
2022-10-05T05:45:44.719Z,7.30
2022-10-05T05:48:19.582Z,7.40
2022-10-05T05:51:00.133Z,7.30
2022-10-05T05:53:43.308Z,7.40
2022-10-05T05:56:28.094Z,7.60
2022-10-05T05:59:13.331Z,7.70
2022-10-05T06:01:55.398Z,7.70
2022-10-05T06:04:28.067Z,7.60
2022-10-05T06:06:58.486Z,7.70
2022-10-05T06:09:38.374Z,7.90
2022-10-05T06:12:22.153Z,7.90
2022-10-05T06:15:14.506Z,7.70
2022-10-05T06:17:53.073Z,8.10
2022-10-05T06:20:37.670Z,8.10
2022-10-05T06:23:21.390Z,8.20
2022-10-05T06:26:31.411Z,8.20
2022-10-05T06:29:04.264Z,8.50
2022-10-05T06:31:44.223Z,8.20
2022-10-05T06:34:44.818Z,8.30
2022-10-05T06:37:29.896Z,8.30
2022-10-05T06:40:27.536Z,8.40
2022-10-05T06:43:17.496Z,8.50
2022-10-05T06:45:53.410Z,8.60
2022-10-05T06:48:48.480Z,8.60
2022-10-05T06:51:49.333Z,9.00
2022-10-05T06:54:41.667Z,8.80
2022-10-05T06:57:09.371Z,8.80
2022-10-05T06:59:56.352Z,8.80
2022-10-05T07:02:30.023Z,8.90
2022-10-05T07:05:34.546Z,8.90
2022-10-05T07:08:26.183Z,9.00
2022-10-05T07:11:13.628Z,9.30
2022-10-05T07:13:56.753Z,9.10
2022-10-05T07:17:00.145Z,9.10
2022-10-05T07:19:58.284Z,9.30
2022-10-05T07:22:28.271Z,10.00
2022-10-05T07:25:14.323Z,9.40
2022-10-05T07:27:53.588Z,9.50
2022-10-05T07:30:21.523Z,9.50
2022-10-05T07:33:12.671Z,9.60
2022-10-05T07:36:04.959Z,9.60
2022-10-05T07:39:00.360Z,9.60
2022-10-05T07:41:53.055Z,9.70
2022-10-05T07:44:37.265Z,9.70
2022-10-05T07:47:26.020Z,9.60
2022-10-05T07:50:04.259Z,9.90
2022-10-05T07:52:38.974Z,9.90
2022-10-05T07:55:15.839Z,9.90
2022-10-05T07:58:02.021Z,10.10
2022-10-05T08:01:00.097Z,10.10
2022-10-05T08:03:27.857Z,10.20
2022-10-05T08:05:57.954Z,10.20
2022-10-05T08:08:44.344Z,10.20
2022-10-05T08:11:38.954Z,10.20
2022-10-05T08:14:37.890Z,10.30
2022-10-05T08:17:25.416Z,10.40
2022-10-05T08:20:06.077Z,10.20
2022-10-05T08:22:53.226Z,10.50
2022-10-05T08:25:26.718Z,10.60
2022-10-05T08:28:06.525Z,10.60
2022-10-05T08:30:55.612Z,11.00
2022-10-05T08:33:27.129Z,10.70
2022-10-05T08:36:07.592Z,10.80
2022-10-05T08:38:37.383Z,10.80
2022-10-05T08:41:26.444Z,11.00
2022-10-05T08:44:32.558Z,10.90
2022-10-05T08:47:28.664Z,11.00
2022-10-05T08:50:23.343Z,11.10
2022-10-05T08:53:31.184Z,11.10
2022-10-05T08:56:19.082Z,11.10
2022-10-05T08:59:15.238Z,11.20
2022-10-05T09:02:21.041Z,11.20
2022-10-05T09:05:24.937Z,11.20
2022-10-05T09:08:32.482Z,11.30
2022-10-05T09:11:05.236Z,11.30
2022-10-05T09:13:54.056Z,11.50
2022-10-05T09:16:44.748Z,11.30
2022-10-05T09:19:23.148Z,11.40
2022-10-05T09:22:24.566Z,11.30
2022-10-05T09:24:57.363Z,11.00
2022-10-05T09:27:38.297Z,11.40
2022-10-05T09:30:13.366Z,11.50
2022-10-05T09:32:59.931Z,11.50
2022-10-05T09:35:27.382Z,11.50
2022-10-05T09:38:14.410Z,11.50
2022-10-05T09:41:20.360Z,11.30
2022-10-05T09:47:52.019Z,11.50
2022-10-05T09:50:38.018Z,11.70
2022-10-05T09:53:35.953Z,11.40
2022-10-05T09:56:15.772Z,11.40
2022-10-05T09:59:11.362Z,11.50
2022-10-05T10:02:04.889Z,11.50
2022-10-05T10:04:55.015Z,11.50
2022-10-05T10:07:43.190Z,11.50
2022-10-05T10:10:37.148Z,11.50
2022-10-05T10:13:32.615Z,11.60
2022-10-05T10:16:10.108Z,11.60
2022-10-05T10:19:04.201Z,11.60
2022-10-05T10:21:56.383Z,11.60
2022-10-05T10:24:59.466Z,11.60
2022-10-05T10:27:56.312Z,11.70
2022-10-05T10:30:45.839Z,11.80
2022-10-05T10:33:33.488Z,11.80
2022-10-05T10:36:35.740Z,11.80
2022-10-05T10:39:23.201Z,11.80
2022-10-05T10:42:20.465Z,11.80
2022-10-05T10:45:12.795Z,11.90
2022-10-05T10:47:55.696Z,11.90
2022-10-05T10:50:47.691Z,11.80
2022-10-05T10:53:46.318Z,11.80
2022-10-05T10:56:48.867Z,11.90
2022-10-05T10:59:47.486Z,12.00
2022-10-05T11:02:31.109Z,11.60
2022-10-05T11:05:14.973Z,12.20
2022-10-05T11:08:59.708Z,12.20
2022-10-05T11:11:44.216Z,12.20
2022-10-05T11:14:52.885Z,12.20
2022-10-05T11:17:42.246Z,12.40
2022-10-05T11:20:54.120Z,12.50
2022-10-05T11:26:47.308Z,12.50
2022-10-05T11:29:41.819Z,12.50
2022-10-05T11:32:29.857Z,12.60
2022-10-05T11:35:37.991Z,12.50
2022-10-05T11:38:11.326Z,12.60
2022-10-05T11:41:16.465Z,12.60
2022-10-05T11:43:54.273Z,12.70
2022-10-05T11:46:27.967Z,12.70
2022-10-05T11:49:20.511Z,12.70
2022-10-05T11:52:06.620Z,12.80
2022-10-05T11:55:16.133Z,12.80
2022-10-05T11:57:54.800Z,12.80
2022-10-05T12:00:32.963Z,12.80
2022-10-05T12:03:03.684Z,12.60
2022-10-05T12:05:40.217Z,12.70
2022-10-05T12:08:49.721Z,12.70
2022-10-05T12:28:50.001Z,12.80
2022-10-05T12:31:35.562Z,12.90
2022-10-05T12:34:30.148Z,12.90
2022-10-05T12:37:06.459Z,12.80
2022-10-05T12:39:39.913Z,12.80
2022-10-05T12:42:07.257Z,12.80
2022-10-05T12:44:49.429Z,12.90
2022-10-05T12:47:44.842Z,12.90
2022-10-05T12:50:28.617Z,12.90
2022-10-05T12:53:02.147Z,13.00
2022-10-05T12:55:53.580Z,13.00
2022-10-05T12:58:33.526Z,13.10
2022-10-05T13:01:17.238Z,13.10
2022-10-05T13:04:04.731Z,13.10
2022-10-05T13:06:42.692Z,13.10
2022-10-05T13:09:33.240Z,13.00
2022-10-05T13:12:09.140Z,13.00
2022-10-05T13:14:55.641Z,13.10
2022-10-05T13:17:42.216Z,13.10
2022-10-05T13:20:31.311Z,13.10
2022-10-05T13:23:14.433Z,13.10
2022-10-05T13:26:01.845Z,13.10
2022-10-05T13:28:46.548Z,13.10
2022-10-05T13:31:21.783Z,13.20
2022-10-05T13:33:52.099Z,13.10
2022-10-05T13:36:36.146Z,13.20
2022-10-05T13:39:24.976Z,13.20
2022-10-05T13:42:17.792Z,13.10
2022-10-05T13:44:59.385Z,13.10
2022-10-05T13:48:21.165Z,13.10
2022-10-05T13:50:52.267Z,13.10
2022-10-05T13:53:25.104Z,13.10
2022-10-05T13:55:57.979Z,13.10
2022-10-05T13:58:50.257Z,13.10
2022-10-05T14:01:29.372Z,13.10
2022-10-05T14:04:16.217Z,13.10
2022-10-05T14:06:46.023Z,13.10
2022-10-05T14:09:25.505Z,13.10
2022-10-05T14:12:14.567Z,13.10
2022-10-05T14:15:09.824Z,13.10
2022-10-05T14:17:40.685Z,13.00
2022-10-05T14:20:37.838Z,13.00
2022-10-05T14:23:17.363Z,13.50
2022-10-05T14:25:54.272Z,12.90
2022-10-05T14:28:38.469Z,12.90
2022-10-05T14:31:26.823Z,12.90
2022-10-05T14:33:54.434Z,12.90
2022-10-05T14:36:37.234Z,12.90
2022-10-05T14:39:12.845Z,12.90
2022-10-05T14:41:48.799Z,12.90
2022-10-05T14:44:26.398Z,12.90
2022-10-05T14:47:02.860Z,12.80
2022-10-05T14:49:37.570Z,12.90
2022-10-05T14:52:34.805Z,12.90
2022-10-05T14:55:18.099Z,12.90
2022-10-05T14:58:11.967Z,12.80
2022-10-05T15:00:52.032Z,12.80
2022-10-05T15:03:19.854Z,12.70
2022-10-05T15:05:59.295Z,12.90
2022-10-05T15:09:03.126Z,12.80
2022-10-05T15:11:38.341Z,12.90
2022-10-05T15:14:19.717Z,12.90
2022-10-05T15:16:52.170Z,12.90
2022-10-05T15:19:28.015Z,12.90
2022-10-05T15:22:11.322Z,12.90
2022-10-05T15:24:52.770Z,12.90
2022-10-05T15:27:47.474Z,12.90
2022-10-05T15:30:22.548Z,12.80
2022-10-05T15:33:13.062Z,12.90
2022-10-05T15:36:04.839Z,12.90
2022-10-05T15:39:11.114Z,12.80
2022-10-05T15:41:55.771Z,12.90
2022-10-05T15:44:49.504Z,13.00
2022-10-05T15:47:21.823Z,12.90
2022-10-05T15:50:38.784Z,12.90
2022-10-05T15:53:43.626Z,12.80
2022-10-05T15:56:33.248Z,12.90
2022-10-05T15:59:26.932Z,12.90
2022-10-05T16:02:01.624Z,12.90
2022-10-05T16:04:52.807Z,12.90
2022-10-05T16:07:46.697Z,12.90
2022-10-05T16:10:24.442Z,13.00
2022-10-05T16:12:58.314Z,13.00
2022-10-05T16:15:33.900Z,13.00
2022-10-05T16:18:36.562Z,13.00
2022-10-05T16:21:32.599Z,13.00
2022-10-05T16:24:19.782Z,13.00
2022-10-05T16:27:14.630Z,13.00
2022-10-05T16:29:56.243Z,13.10
2022-10-05T16:32:33.181Z,12.80
2022-10-05T16:35:19.942Z,13.10
2022-10-05T16:38:26.127Z,13.00
2022-10-05T16:41:14.760Z,13.10
2022-10-05T16:44:00.786Z,13.10
2022-10-05T16:46:40.432Z,13.00
2022-10-05T16:49:26.795Z,13.00
2022-10-05T16:52:02.286Z,13.10
2022-10-05T16:54:48.046Z,13.00
2022-10-05T16:57:21.900Z,13.00
2022-10-05T16:59:57.996Z,13.00
2022-10-05T17:02:53.881Z,13.00
2022-10-05T17:05:39.149Z,13.10
2022-10-05T17:08:32.185Z,13.10
2022-10-05T17:11:16.677Z,13.10
2022-10-05T17:14:14.589Z,13.10
2022-10-05T17:16:56.542Z,13.10
2022-10-05T17:19:38.053Z,13.00
2022-10-05T17:22:31.532Z,13.10
2022-10-05T17:25:34.465Z,13.10
2022-10-05T17:28:39.655Z,13.20
2022-10-05T17:31:17.685Z,13.10
2022-10-05T17:34:03.158Z,13.10
2022-10-05T17:36:45.915Z,13.20
2022-10-05T17:39:17.780Z,13.10
2022-10-05T17:41:45.573Z,13.10
2022-10-05T17:44:24.629Z,13.10
2022-10-05T17:47:00.859Z,13.10
2022-10-05T17:49:34.474Z,13.10
2022-10-05T17:52:39.664Z,13.10
2022-10-05T17:55:41.480Z,13.20
2022-10-05T17:58:28.071Z,13.20
2022-10-05T18:01:00.105Z,13.20
2022-10-05T18:03:43.075Z,13.20
2022-10-05T18:06:34.389Z,13.20
2022-10-05T18:09:36.375Z,13.20
2022-10-05T18:12:12.267Z,13.30
2022-10-05T18:14:55.824Z,13.20
2022-10-05T18:18:20.957Z,13.20
2022-10-05T18:21:28.326Z,13.20
2022-10-05T18:23:58.715Z,13.20
2022-10-05T18:26:59.698Z,13.20
2022-10-05T18:30:03.491Z,13.20
2022-10-05T18:33:01.447Z,13.10
2022-10-05T18:35:40.666Z,13.20
2022-10-05T18:38:46.345Z,13.20
2022-10-05T18:41:37.664Z,13.10
2022-10-05T18:44:12.345Z,13.20
2022-10-05T18:46:58.205Z,13.30
2022-10-05T18:49:27.717Z,13.20
2022-10-05T18:52:37.709Z,13.20
2022-10-05T18:55:26.457Z,13.30
2022-10-05T18:57:54.200Z,13.20
2022-10-05T19:00:24.065Z,13.10
2022-10-05T19:03:19.399Z,13.20
2022-10-05T19:06:12.737Z,13.10
2022-10-05T19:09:28.845Z,13.10
2022-10-05T19:12:13.329Z,13.10
2022-10-05T19:15:01.330Z,13.10
2022-10-05T19:18:01.389Z,13.10
2022-10-05T19:20:42.056Z,13.10
2022-10-05T19:23:50.697Z,13.10
2022-10-05T19:26:25.091Z,13.10
2022-10-05T19:29:22.826Z,13.10
2022-10-05T19:32:02.634Z,13.10
2022-10-05T19:34:45.183Z,13.10
2022-10-05T19:53:24.340Z,13.10
2022-10-05T19:55:54.199Z,13.20
2022-10-05T19:58:26.749Z,13.10
2022-10-05T20:00:58.912Z,13.10
2022-10-05T20:03:31.896Z,13.10
2022-10-05T20:06:01.607Z,13.20
2022-10-05T20:08:45.056Z,13.20
2022-10-05T20:11:15.539Z,13.20
2022-10-05T20:13:46.160Z,13.20
2022-10-05T20:16:35.114Z,13.30
2022-10-05T20:19:47.655Z,13.30
2022-10-05T20:22:46.513Z,13.20
2022-10-05T20:25:20.236Z,13.10
2022-10-05T20:27:53.418Z,13.20
2022-10-05T20:30:23.514Z,13.30
2022-10-05T20:32:53.201Z,13.30
2022-10-05T20:35:23.545Z,13.30
2022-10-05T20:37:51.187Z,13.30
2022-10-05T20:40:20.302Z,13.30
2022-10-05T20:42:48.574Z,13.30
2022-10-05T20:45:16.168Z,13.30
2022-10-05T20:47:44.094Z,13.30
2022-10-05T20:50:14.392Z,13.30
2022-10-05T20:52:41.763Z,13.30
2022-10-05T20:55:10.935Z,13.30
2022-10-05T20:57:42.181Z,13.30
2022-10-05T21:00:11.771Z,13.20
2022-10-05T21:02:40.056Z,13.20
2022-10-05T21:05:08.063Z,13.20
2022-10-05T21:07:35.542Z,13.20
2022-10-05T21:10:04.285Z,13.30
2022-10-05T21:12:35.168Z,13.30
2022-10-05T21:15:04.904Z,13.30
2022-10-05T21:17:34.763Z,13.30
2022-10-05T21:20:02.265Z,13.30
2022-10-05T21:22:29.855Z,13.30
2022-10-05T21:24:57.330Z,13.20
2022-10-05T21:27:24.744Z,13.30
2022-10-05T21:29:52.456Z,13.40
2022-10-05T21:32:19.994Z,13.30
2022-10-05T21:34:47.592Z,13.30
2022-10-05T21:37:15.710Z,13.30
2022-10-05T21:39:43.114Z,13.40
2022-10-05T21:42:10.863Z,13.40
2022-10-05T21:44:38.256Z,13.40
2022-10-05T21:47:07.213Z,13.40
2022-10-05T21:49:36.592Z,13.40
2022-10-05T21:52:05.782Z,13.40
2022-10-05T21:54:34.521Z,13.50
2022-10-05T21:57:02.933Z,13.50
2022-10-05T21:59:33.047Z,13.50
2022-10-05T22:02:01.108Z,13.50
2022-10-05T22:04:28.681Z,13.50
2022-10-05T22:06:56.763Z,13.50
2022-10-05T22:09:24.317Z,13.50
2022-10-05T22:11:51.848Z,13.50
2022-10-05T22:14:19.444Z,13.50
2022-10-05T22:16:47.441Z,13.50
2022-10-05T22:19:18.037Z,13.50
2022-10-05T22:21:45.617Z,13.40
2022-10-05T22:24:13.255Z,13.40
2022-10-05T22:26:43.955Z,13.40
2022-10-05T22:29:11.598Z,13.40
2022-10-05T22:31:39.870Z,13.40
2022-10-05T22:34:07.487Z,13.40
2022-10-05T22:36:36.057Z,13.40
2022-10-05T22:39:03.930Z,13.40
2022-10-05T22:41:31.375Z,13.40
2022-10-05T22:43:59.094Z,13.50
2022-10-05T22:46:26.579Z,13.50
2022-10-05T22:48:54.479Z,13.40
2022-10-05T22:51:22.305Z,13.40
2022-10-05T22:53:49.624Z,13.40
2022-10-05T22:56:17.578Z,13.40
2022-10-05T22:58:45.535Z,13.40
2022-10-05T23:01:15.697Z,13.40
2022-10-05T23:03:43.771Z,13.40
2022-10-05T23:06:13.693Z,13.40
2022-10-05T23:08:42.182Z,13.40
2022-10-05T23:11:15.070Z,13.40
2022-10-05T23:13:43.489Z,13.40
2022-10-05T23:16:16.993Z,13.40
2022-10-05T23:18:45.261Z,13.40
2022-10-05T23:21:12.835Z,13.40
2022-10-05T23:23:42.908Z,13.40
2022-10-05T23:26:12.085Z,13.40
2022-10-05T23:28:43.478Z,13.40
2022-10-05T23:31:11.182Z,13.40
2022-10-05T23:33:38.942Z,13.40
2022-10-05T23:36:33.252Z,13.40
2022-10-05T23:39:01.025Z,13.40
2022-10-05T23:41:29.348Z,13.30
2022-10-05T23:43:56.824Z,13.40
2022-10-05T23:46:24.459Z,13.40
2022-10-05T23:48:53.390Z,13.30
2022-10-05T23:51:20.976Z,13.40
2022-10-05T23:53:48.529Z,13.30
2022-10-05T23:56:16.165Z,13.30
2022-10-05T23:58:44.051Z,13.30
